createdAt,value
2023-03-29T00:01:51.382Z,32.42
2023-03-29T00:04:23.577Z,32.42
2023-03-29T00:06:55.516Z,32.58
2023-03-29T00:09:24.868Z,32.46
2023-03-29T00:11:53.963Z,32.72
2023-03-29T00:14:25.747Z,32.35
2023-03-29T00:16:59.940Z,32.61
2023-03-29T00:19:31.215Z,32.48
2023-03-29T00:22:06.284Z,32.55
2023-03-29T00:24:40.824Z,32.08
2023-03-29T00:27:12.572Z,32.07
2023-03-29T00:29:55.893Z,32.16
2023-03-29T00:32:27.875Z,32.81
2023-03-29T00:35:02.389Z,32.47
2023-03-29T00:37:46.846Z,32.44
2023-03-29T00:40:16.977Z,32.24
2023-03-29T00:42:49.182Z,32.34
2023-03-29T00:45:22.613Z,32.56
2023-03-29T00:48:04.371Z,32.60
2023-03-29T00:50:33.545Z,32.75
2023-03-29T00:53:07.112Z,32.27
2023-03-29T00:55:39.844Z,32.60
2023-03-29T00:58:09.493Z,32.17
2023-03-29T01:00:43.425Z,32.54
2023-03-29T01:03:16.090Z,32.13
2023-03-29T01:05:49.346Z,32.30
2023-03-29T01:08:23.204Z,32.18
2023-03-29T01:11:05.496Z,32.51
2023-03-29T01:13:39.800Z,32.30
2023-03-29T01:16:09.873Z,32.38
2023-03-29T01:18:39.142Z,32.19
2023-03-29T01:21:08.187Z,32.37
2023-03-29T01:23:52.745Z,32.37
2023-03-29T01:26:40.088Z,32.26
2023-03-29T01:29:16.746Z,32.02
2023-03-29T01:31:56.222Z,32.13
2023-03-29T01:34:31.191Z,31.99
2023-03-29T01:37:05.623Z,32.00
2023-03-29T01:39:36.569Z,32.24
2023-03-29T01:42:17.667Z,32.12
2023-03-29T01:44:52.139Z,32.52
2023-03-29T01:47:37.253Z,32.21
2023-03-29T01:50:12.590Z,32.14
2023-03-29T01:52:43.238Z,32.17
2023-03-29T01:55:17.161Z,31.68
2023-03-29T01:57:49.482Z,31.78
2023-03-29T02:00:19.468Z,31.91
2023-03-29T02:02:48.645Z,32.09
2023-03-29T02:05:17.978Z,31.71
2023-03-29T02:07:46.993Z,31.82
2023-03-29T02:10:26.468Z,31.47
2023-03-29T02:12:55.529Z,31.58
2023-03-29T02:15:25.095Z,31.86
2023-03-29T02:17:57.050Z,31.70
2023-03-29T02:20:27.575Z,31.44
2023-03-29T02:23:12.115Z,31.36
2023-03-29T02:25:41.217Z,31.28
2023-03-29T02:28:15.331Z,30.95
2023-03-29T02:30:51.091Z,30.35
2023-03-29T02:33:20.958Z,30.29
2023-03-29T02:36:06.883Z,29.92
2023-03-29T02:38:37.913Z,29.65
2023-03-29T02:41:07.260Z,29.50
2023-03-29T02:43:36.314Z,29.47
2023-03-29T02:46:05.734Z,28.98
2023-03-29T02:48:34.736Z,28.69
2023-03-29T02:51:04.338Z,28.32
2023-03-29T02:53:38.537Z,28.19
2023-03-29T02:56:10.344Z,27.41
2023-03-29T02:58:42.520Z,25.95
2023-03-29T03:01:12.038Z,27.55
2023-03-29T03:03:41.154Z,27.65
2023-03-29T03:06:10.263Z,27.25
2023-03-29T03:08:39.360Z,27.20
2023-03-29T03:11:08.673Z,26.97
2023-03-29T03:13:37.861Z,26.80
2023-03-29T03:16:07.078Z,26.29
2023-03-29T03:18:36.079Z,26.28
2023-03-29T03:21:06.045Z,26.54
2023-03-29T03:23:35.040Z,26.57
2023-03-29T03:26:04.492Z,26.06
2023-03-29T03:28:33.856Z,25.72
2023-03-29T03:31:03.077Z,25.95
2023-03-29T03:33:32.236Z,25.77
2023-03-29T03:36:10.023Z,26.18
2023-03-29T03:38:39.710Z,26.38
2023-03-29T03:41:08.854Z,26.45
2023-03-29T03:43:38.746Z,25.99
2023-03-29T03:46:10.170Z,26.06
2023-03-29T03:48:39.206Z,25.66
2023-03-29T03:51:11.391Z,25.71
2023-03-29T03:53:40.479Z,25.86
2023-03-29T03:56:12.850Z,25.71
2023-03-29T03:58:42.134Z,25.43
2023-03-29T04:01:11.479Z,25.29
2023-03-29T04:03:40.714Z,25.04
2023-03-29T04:06:09.899Z,25.43
2023-03-29T04:08:43.729Z,25.09
2023-03-29T04:11:12.854Z,24.44
2023-03-29T04:13:45.184Z,24.88
2023-03-29T04:16:14.387Z,24.37
2023-03-29T04:18:43.483Z,24.24
2023-03-29T04:21:12.707Z,24.09
2023-03-29T04:23:41.784Z,23.93
2023-03-29T04:26:11.190Z,23.87
2023-03-29T04:28:40.232Z,24.25
2023-03-29T04:31:16.062Z,23.66
2023-03-29T04:33:50.996Z,23.85
2023-03-29T04:36:20.006Z,23.59
2023-03-29T04:38:49.312Z,23.68
2023-03-29T04:41:18.331Z,23.39
2023-03-29T04:43:47.920Z,23.33
2023-03-29T04:46:20.103Z,23.47
2023-03-29T04:48:52.833Z,23.62
2023-03-29T04:51:23.796Z,22.97
2023-03-29T04:53:53.051Z,22.60
2023-03-29T04:56:22.051Z,21.74
2023-03-29T04:58:53.480Z,21.93
2023-03-29T05:01:22.630Z,21.35
2023-03-29T05:03:54.890Z,21.62
2023-03-29T05:06:23.851Z,22.05
2023-03-29T05:08:53.795Z,22.11
2023-03-29T05:11:26.668Z,20.98
2023-03-29T05:13:58.732Z,21.39
2023-03-29T05:16:31.115Z,20.91
2023-03-29T05:19:00.405Z,21.26
2023-03-29T05:21:32.633Z,21.17
2023-03-29T05:24:16.761Z,20.46
2023-03-29T05:26:46.407Z,20.79
2023-03-29T05:29:19.534Z,21.11
2023-03-29T05:31:51.311Z,20.60
2023-03-29T05:34:23.795Z,20.83
2023-03-29T05:36:53.258Z,20.12
2023-03-29T05:39:22.700Z,21.26
2023-03-29T05:41:54.664Z,20.98
2023-03-29T05:44:23.954Z,20.86
2023-03-29T05:46:52.983Z,21.04
2023-03-29T05:49:24.736Z,21.13
2023-03-29T05:51:53.904Z,20.88
2023-03-29T05:54:26.031Z,20.76
2023-03-29T05:56:55.097Z,20.57
2023-03-29T05:59:29.968Z,21.05
2023-03-29T06:02:11.078Z,21.48
2023-03-29T06:04:45.652Z,22.10
2023-03-29T06:07:14.729Z,22.63
2023-03-29T06:09:43.783Z,22.01
2023-03-29T06:12:13.785Z,22.26
2023-03-29T06:14:42.801Z,22.07
2023-03-29T06:17:12.322Z,22.46
2023-03-29T06:19:44.524Z,22.74
2023-03-29T06:22:16.282Z,23.42
2023-03-29T06:24:45.589Z,22.99
2023-03-29T06:27:23.657Z,23.53
2023-03-29T06:29:53.261Z,23.01
2023-03-29T06:32:22.707Z,23.68
2023-03-29T06:34:52.458Z,23.21
2023-03-29T06:37:24.331Z,23.47
2023-03-29T06:39:55.367Z,23.31
2023-03-29T06:42:24.730Z,23.50
2023-03-29T06:44:54.064Z,23.53
2023-03-29T06:47:32.254Z,23.61
2023-03-29T06:50:01.506Z,22.70
2023-03-29T06:52:30.542Z,22.15
2023-03-29T06:55:08.959Z,21.84
2023-03-29T06:57:38.415Z,22.16
2023-03-29T07:00:40.708Z,22.13
2023-03-29T07:03:12.059Z,21.91
2023-03-29T07:05:43.832Z,22.06
2023-03-29T07:08:13.412Z,21.81
2023-03-29T07:10:43.396Z,22.09
2023-03-29T07:13:18.851Z,21.77
2023-03-29T07:15:47.990Z,21.92
2023-03-29T07:18:20.115Z,22.06
2023-03-29T07:20:52.484Z,22.30
2023-03-29T07:23:24.244Z,22.93
2023-03-29T07:25:53.721Z,23.60
2023-03-29T07:28:25.893Z,24.11
2023-03-29T07:30:56.545Z,24.34
2023-03-29T07:33:25.897Z,24.74
2023-03-29T07:35:57.844Z,24.78
2023-03-29T07:38:27.113Z,24.89
2023-03-29T07:40:56.185Z,24.95
2023-03-29T07:43:25.770Z,25.06
2023-03-29T07:45:54.975Z,24.94
2023-03-29T07:48:23.998Z,24.86
2023-03-29T07:50:53.028Z,25.18
2023-03-29T07:53:22.658Z,25.44
2023-03-29T07:55:52.196Z,25.44
2023-03-29T07:58:21.810Z,25.27
2023-03-29T08:00:50.886Z,25.40
2023-03-29T08:03:20.110Z,25.48
2023-03-29T08:05:49.220Z,24.86
2023-03-29T08:08:18.737Z,24.98
2023-03-29T08:10:47.877Z,25.24
2023-03-29T08:13:19.753Z,25.37
2023-03-29T08:15:53.050Z,25.08
2023-03-29T08:18:22.327Z,25.31
2023-03-29T08:20:52.545Z,24.79
2023-03-29T08:23:24.310Z,24.97
2023-03-29T08:25:53.639Z,24.85
2023-03-29T08:28:22.611Z,24.66
2023-03-29T08:30:51.615Z,24.71
2023-03-29T08:33:23.051Z,24.33
2023-03-29T08:35:52.128Z,24.79
2023-03-29T08:38:21.400Z,24.36
2023-03-29T08:40:50.987Z,24.86
2023-03-29T08:43:32.198Z,24.63
2023-03-29T08:46:19.919Z,24.52
2023-03-29T08:49:08.950Z,25.04
2023-03-29T08:51:38.978Z,25.05
2023-03-29T08:54:11.697Z,24.78
2023-03-29T08:56:41.199Z,25.04
2023-03-29T08:59:14.345Z,25.07
2023-03-29T09:01:43.372Z,25.29
2023-03-29T09:04:19.184Z,25.27
2023-03-29T09:06:49.075Z,25.06
2023-03-29T09:09:20.257Z,25.07
2023-03-29T09:11:49.331Z,25.09
2023-03-29T09:14:34.645Z,25.20
2023-03-29T09:17:03.698Z,25.27
2023-03-29T09:19:53.745Z,25.13
2023-03-29T09:22:25.825Z,24.92
2023-03-29T09:25:07.043Z,25.30
2023-03-29T09:28:11.374Z,25.21
2023-03-29T09:30:44.336Z,25.28
2023-03-29T09:33:26.299Z,25.24
2023-03-29T09:36:01.343Z,25.10
2023-03-29T09:38:31.310Z,25.16
2023-03-29T09:41:01.778Z,25.33
2023-03-29T09:43:40.906Z,25.24
2023-03-29T09:46:17.383Z,25.36
2023-03-29T09:48:46.424Z,25.29
2023-03-29T09:51:15.496Z,25.37
2023-03-29T09:53:44.548Z,25.50
2023-03-29T09:56:13.690Z,25.47
2023-03-29T09:58:43.263Z,25.48
2023-03-29T10:01:13.562Z,25.39
2023-03-29T10:03:43.077Z,25.70
2023-03-29T10:06:12.563Z,25.57
2023-03-29T10:08:42.981Z,25.67
2023-03-29T10:11:16.099Z,25.64
2023-03-29T10:13:52.926Z,25.50
2023-03-29T10:16:26.254Z,25.70
2023-03-29T10:18:56.203Z,25.56
2023-03-29T10:21:25.897Z,25.73
2023-03-29T10:24:01.894Z,25.61
2023-03-29T10:26:32.436Z,25.82
2023-03-29T10:29:03.367Z,25.61
2023-03-29T10:31:35.495Z,25.71
2023-03-29T10:34:05.706Z,25.67
2023-03-29T10:36:34.750Z,25.91
2023-03-29T10:39:06.055Z,25.84
2023-03-29T10:41:40.913Z,25.87
2023-03-29T10:44:12.012Z,25.89
2023-03-29T10:46:45.382Z,25.83
2023-03-29T10:49:18.539Z,25.89
2023-03-29T10:51:48.475Z,25.81
2023-03-29T10:54:19.543Z,25.99
2023-03-29T10:56:54.665Z,25.95
2023-03-29T10:59:31.900Z,25.76
2023-03-29T11:02:23.820Z,25.83
2023-03-29T11:05:04.976Z,25.85
2023-03-29T11:07:43.556Z,25.91
2023-03-29T11:10:30.833Z,25.93
2023-03-29T11:13:02.771Z,25.92
2023-03-29T11:15:49.946Z,25.95
2023-03-29T11:18:29.123Z,25.94
2023-03-29T11:21:06.803Z,26.11
2023-03-29T11:23:51.976Z,25.89
2023-03-29T11:26:30.920Z,26.17
2023-03-29T11:29:02.944Z,26.14
2023-03-29T11:31:50.201Z,26.22
2023-03-29T11:34:34.176Z,26.08
2023-03-29T11:37:21.492Z,26.11
2023-03-29T11:40:02.742Z,26.14
2023-03-29T11:42:33.693Z,26.17
2023-03-29T11:45:05.048Z,26.46
2023-03-29T11:47:34.931Z,26.14
2023-03-29T11:50:24.841Z,26.48
2023-03-29T11:52:55.605Z,26.33
2023-03-29T11:55:28.332Z,26.40
2023-03-29T11:58:08.146Z,26.26
2023-03-29T12:00:39.062Z,26.33
2023-03-29T12:03:14.828Z,26.29
2023-03-29T12:06:05.996Z,26.36
2023-03-29T12:08:40.453Z,26.21
2023-03-29T12:11:11.673Z,26.37
2023-03-29T12:14:00.707Z,26.41
2023-03-29T12:16:49.447Z,26.36
2023-03-29T12:19:20.492Z,26.45
2023-03-29T12:21:49.637Z,26.50
2023-03-29T12:24:19.210Z,26.57
2023-03-29T12:26:54.163Z,26.46
2023-03-29T12:29:37.780Z,26.50
2023-03-29T12:32:07.086Z,26.53
2023-03-29T12:34:45.510Z,26.49
2023-03-29T12:37:14.473Z,26.48
2023-03-29T12:39:44.489Z,26.67
2023-03-29T12:42:23.261Z,26.65
2023-03-29T12:44:52.957Z,26.80
2023-03-29T12:47:25.392Z,26.63
2023-03-29T12:49:58.186Z,26.75
2023-03-29T12:52:37.039Z,26.60
2023-03-29T12:55:25.259Z,26.83
2023-03-29T12:58:03.607Z,26.72
2023-03-29T13:00:45.032Z,26.71
2023-03-29T13:03:29.697Z,26.82
2023-03-29T13:06:04.020Z,26.79
2023-03-29T13:08:43.961Z,26.80
2023-03-29T13:11:36.266Z,26.75
2023-03-29T13:14:07.343Z,26.92
2023-03-29T13:16:37.033Z,26.84
2023-03-29T13:19:25.236Z,26.75
2023-03-29T13:22:15.951Z,26.71
2023-03-29T13:25:04.255Z,26.75
2023-03-29T13:27:38.819Z,27.01
2023-03-29T13:30:26.214Z,27.02
2023-03-29T13:32:58.007Z,26.84
2023-03-29T13:35:33.538Z,27.01
2023-03-29T13:38:06.733Z,27.02
2023-03-29T13:40:48.448Z,26.87
2023-03-29T13:43:25.612Z,27.01
2023-03-29T13:46:05.104Z,27.00
2023-03-29T13:48:38.286Z,26.92
2023-03-29T13:51:17.353Z,27.16
2023-03-29T13:53:57.261Z,27.16
2023-03-29T13:56:32.769Z,27.03
2023-03-29T13:59:07.392Z,27.15
2023-03-29T14:01:52.153Z,27.24
2023-03-29T14:04:35.766Z,27.02
2023-03-29T14:07:10.268Z,27.29
2023-03-29T14:09:42.895Z,27.18
2023-03-29T14:12:20.128Z,27.28
2023-03-29T14:14:59.609Z,27.22
2023-03-29T14:17:32.058Z,27.34
2023-03-29T14:20:01.754Z,27.33
2023-03-29T14:22:36.593Z,27.31
2023-03-29T14:25:16.137Z,27.16
2023-03-29T14:27:45.328Z,27.28
2023-03-29T14:30:34.374Z,27.30
2023-03-29T14:33:12.453Z,27.14
2023-03-29T14:35:42.351Z,27.21
2023-03-29T14:38:13.366Z,27.20
2023-03-29T14:40:42.524Z,27.22
2023-03-29T14:43:15.161Z,27.24
2023-03-29T14:45:46.014Z,27.29
2023-03-29T14:48:16.107Z,27.13
2023-03-29T14:50:49.169Z,27.26
2023-03-29T14:53:23.156Z,27.24
2023-03-29T14:55:53.853Z,27.43
2023-03-29T14:58:35.987Z,27.22
2023-03-29T15:01:13.223Z,27.34
2023-03-29T15:03:56.677Z,27.38
2023-03-29T15:06:28.138Z,27.46
2023-03-29T15:09:06.188Z,27.34
2023-03-29T15:11:39.504Z,27.37
2023-03-29T15:14:20.493Z,27.24
2023-03-29T15:16:59.502Z,27.43
2023-03-29T15:19:28.902Z,27.35
2023-03-29T15:21:59.352Z,27.47
2023-03-29T15:24:33.291Z,27.30
2023-03-29T15:27:05.011Z,27.29
2023-03-29T15:29:39.262Z,27.48
2023-03-29T15:32:09.228Z,27.53
2023-03-29T15:34:40.029Z,27.48
2023-03-29T15:37:09.816Z,27.53
2023-03-29T15:39:39.763Z,27.43
2023-03-29T15:42:08.957Z,27.38
2023-03-29T15:44:37.972Z,27.36
2023-03-29T15:47:11.660Z,27.49
2023-03-29T15:49:41.852Z,27.60
2023-03-29T15:52:10.894Z,27.50
2023-03-29T15:54:42.360Z,27.53
2023-03-29T15:57:14.433Z,27.41
2023-03-29T15:59:44.306Z,27.60
2023-03-29T16:02:17.814Z,27.64
2023-03-29T16:04:47.654Z,27.51
2023-03-29T16:07:20.681Z,27.46
2023-03-29T16:09:53.154Z,27.48
2023-03-29T16:12:22.674Z,27.71
2023-03-29T16:14:52.091Z,27.60
2023-03-29T16:17:21.139Z,27.68
2023-03-29T16:19:50.222Z,27.70
2023-03-29T16:22:20.780Z,27.67
2023-03-29T16:24:57.159Z,27.59
2023-03-29T16:27:26.851Z,27.56
2023-03-29T16:29:56.680Z,27.72
2023-03-29T16:32:25.766Z,27.70
2023-03-29T16:34:58.241Z,27.62
2023-03-29T16:37:27.875Z,27.64
2023-03-29T16:40:00.252Z,27.73
2023-03-29T16:42:29.827Z,27.49
2023-03-29T16:45:00.550Z,27.67
2023-03-29T16:47:30.190Z,27.57
2023-03-29T16:50:03.096Z,27.65
2023-03-29T16:52:32.800Z,27.58
2023-03-29T16:55:05.644Z,27.68
2023-03-29T16:57:35.011Z,27.53
2023-03-29T17:00:05.124Z,27.67
2023-03-29T17:02:34.906Z,27.72
2023-03-29T17:05:04.551Z,27.67
2023-03-29T17:07:33.908Z,27.80
2023-03-29T17:10:06.134Z,27.80
2023-03-29T17:12:35.074Z,27.59
2023-03-29T17:15:04.336Z,27.76
2023-03-29T17:17:33.604Z,27.63
2023-03-29T17:20:02.680Z,27.53
2023-03-29T17:22:31.665Z,27.68
2023-03-29T17:25:00.680Z,27.61
2023-03-29T17:27:32.415Z,27.72
2023-03-29T17:30:01.695Z,27.75
2023-03-29T17:32:33.819Z,27.72
2023-03-29T17:35:02.895Z,27.72
2023-03-29T17:37:33.195Z,27.80
2023-03-29T17:40:02.484Z,27.88
2023-03-29T17:42:31.498Z,27.83
2023-03-29T17:45:00.810Z,27.73
2023-03-29T17:47:29.906Z,27.65
2023-03-29T17:49:59.455Z,27.79
2023-03-29T17:52:28.699Z,27.94
2023-03-29T17:55:00.608Z,27.92
2023-03-29T17:57:30.413Z,27.86
2023-03-29T17:59:59.466Z,27.85
2023-03-29T18:02:28.652Z,27.78
2023-03-29T18:04:58.890Z,27.96
2023-03-29T18:07:27.980Z,27.96
2023-03-29T18:09:56.999Z,27.81
2023-03-29T18:12:29.596Z,27.88
2023-03-29T18:14:58.598Z,27.80
2023-03-29T18:17:28.817Z,27.96
2023-03-29T18:19:57.912Z,27.88
2023-03-29T18:22:26.997Z,28.04
2023-03-29T18:25:02.003Z,27.83
2023-03-29T18:27:31.015Z,27.92
2023-03-29T18:30:00.694Z,27.77
2023-03-29T18:32:29.805Z,27.78
2023-03-29T18:35:01.770Z,27.90
2023-03-29T18:37:30.819Z,27.86
2023-03-29T18:39:59.893Z,27.96
2023-03-29T18:42:31.609Z,27.87
2023-03-29T18:45:00.927Z,27.85
2023-03-29T18:47:30.593Z,27.83
2023-03-29T18:50:05.844Z,27.88
2023-03-29T18:52:37.910Z,27.94
2023-03-29T18:55:08.365Z,27.95
2023-03-29T18:57:38.256Z,27.80
2023-03-29T19:00:12.137Z,27.90
2023-03-29T19:02:42.128Z,27.91
2023-03-29T19:05:11.636Z,28.01
2023-03-29T19:07:40.698Z,27.88
2023-03-29T19:10:10.227Z,27.95
2023-03-29T19:12:39.263Z,27.96
2023-03-29T19:15:10.728Z,27.92
2023-03-29T19:17:42.916Z,28.04
2023-03-29T19:20:12.235Z,27.90
2023-03-29T19:22:42.564Z,27.91
2023-03-29T19:25:14.939Z,28.01
2023-03-29T19:27:44.275Z,27.86
2023-03-29T19:30:13.530Z,27.88
2023-03-29T19:32:42.622Z,27.99
2023-03-29T19:35:14.779Z,27.97
2023-03-29T19:37:46.765Z,28.05
2023-03-29T19:40:15.873Z,27.93
2023-03-29T19:42:50.991Z,27.96
2023-03-29T19:45:20.045Z,27.94
2023-03-29T19:47:53.239Z,27.98
2023-03-29T19:50:26.925Z,28.00
2023-03-29T19:52:56.124Z,28.02
2023-03-29T19:55:27.822Z,27.97
2023-03-29T19:57:56.947Z,28.09
2023-03-29T20:00:26.693Z,28.00
2023-03-29T20:02:57.189Z,28.09
2023-03-29T20:05:26.178Z,27.99
2023-03-29T20:07:55.855Z,27.94
2023-03-29T20:10:24.850Z,27.96
2023-03-29T20:12:53.899Z,27.92
2023-03-29T20:15:28.881Z,28.00
2023-03-29T20:17:59.795Z,27.98
2023-03-29T20:20:29.106Z,28.08
2023-03-29T20:23:05.287Z,28.01
2023-03-29T20:25:39.664Z,27.94
2023-03-29T20:28:08.673Z,27.93
2023-03-29T20:30:43.787Z,27.94
2023-03-29T20:33:13.143Z,27.94
2023-03-29T20:35:42.165Z,28.00
2023-03-29T20:38:11.788Z,28.02
2023-03-29T20:40:42.571Z,27.81
2023-03-29T20:43:14.745Z,27.74
2023-03-29T20:45:53.500Z,27.68
2023-03-29T20:48:31.860Z,27.76
2023-03-29T20:51:04.449Z,27.75
2023-03-29T20:53:35.721Z,27.76
2023-03-29T20:56:04.879Z,27.74
2023-03-29T20:58:33.927Z,27.61
2023-03-29T21:01:06.282Z,27.71
2023-03-29T21:03:35.723Z,27.72
2023-03-29T21:06:04.884Z,27.90
2023-03-29T21:08:33.862Z,27.77
2023-03-29T21:11:03.141Z,27.66
2023-03-29T21:13:37.076Z,27.75
2023-03-29T21:16:06.670Z,27.61
2023-03-29T21:18:37.915Z,28.10
2023-03-29T21:21:13.511Z,28.14
2023-03-29T21:23:42.559Z,28.22
2023-03-29T21:26:11.636Z,28.30
2023-03-29T21:28:44.713Z,28.32
2023-03-29T21:31:13.804Z,28.35
2023-03-29T21:33:42.913Z,28.43
2023-03-29T21:36:12.105Z,28.55
2023-03-29T21:38:41.119Z,28.57
2023-03-29T21:41:20.796Z,28.57
2023-03-29T21:43:50.106Z,28.56
2023-03-29T21:46:22.162Z,28.51
2023-03-29T21:48:51.217Z,28.46
2023-03-29T21:51:20.316Z,28.57
2023-03-29T21:53:51.914Z,28.46
2023-03-29T21:56:27.114Z,28.45
2023-03-29T21:58:56.193Z,28.57
2023-03-29T22:01:28.361Z,27.89
2023-03-29T22:03:57.593Z,28.21
2023-03-29T22:06:27.077Z,28.43
2023-03-29T22:08:56.118Z,28.42
2023-03-29T22:11:27.253Z,28.27
2023-03-29T22:13:56.380Z,28.31
2023-03-29T22:16:29.039Z,28.28
2023-03-29T22:18:58.011Z,28.10
2023-03-29T22:21:28.202Z,28.16
2023-03-29T22:24:01.500Z,28.04
2023-03-29T22:26:31.565Z,27.91
2023-03-29T22:29:01.225Z,27.84
2023-03-29T22:31:33.859Z,27.37
2023-03-29T22:34:04.344Z,27.17
2023-03-29T22:36:40.588Z,26.84
2023-03-29T22:39:14.904Z,26.93
2023-03-29T22:41:44.328Z,26.71
2023-03-29T22:44:13.288Z,26.67
2023-03-29T22:46:42.815Z,26.71
2023-03-29T22:49:12.106Z,26.58
2023-03-29T22:51:41.235Z,26.49
2023-03-29T22:54:10.361Z,26.67
2023-03-29T22:56:39.479Z,26.55
2023-03-29T22:59:08.715Z,26.46
2023-03-29T23:01:38.159Z,26.62
2023-03-29T23:04:07.886Z,26.30
2023-03-29T23:06:36.915Z,26.34
2023-03-29T23:12:21.338Z,28.45
2023-03-29T23:15:42.087Z,29.04
2023-03-29T23:19:02.336Z,29.17
2023-03-29T23:22:30.681Z,29.23
2023-03-29T23:25:21.243Z,29.54
2023-03-29T23:38:16.937Z,29.29
2023-03-29T23:40:58.062Z,29.35
2023-03-29T23:43:49.433Z,29.23
2023-03-29T23:50:30.338Z,29.21
